Time;durP1;ratioP1;P1;durP2;ratioP2;P2;SDS_P1;SDS_P2;PMS_P1;PMS_P2;Temp;Humidity;BMP_temperature;BMP_pressure;BME280_temperature;BME280_humidity;BME280_pressure;Samples;Min_cycle;Max_cycle;Signal;HPM_P1;HPM_P2
2020/12/20 00:01:45;;;;;;;13.00;3.88;;;8.70;99.90;;;8.23;94.03;101093.53;4088867;29;20031;-69
2020/12/20 00:03:46;;;;;;;17.60;3.10;;;8.60;99.90;;;8.19;94.69;101102.66;4105065;29;20485;-70
2020/12/20 00:05:47;;;;;;;18.13;3.60;;;8.60;99.90;;;8.01;94.42;101098.13;4104923;29;20038;-70
2020/12/20 00:07:50;;;;;;;12.45;3.67;;;8.50;99.90;;;8.01;94.75;101085.00;4088325;29;20055;-70
2020/12/20 00:09:51;;;;;;;14.27;4.07;;;8.50;99.90;;;7.98;94.88;101091.34;4088620;29;20040;-70
2020/12/20 00:11:53;;;;;;;10.23;3.20;;;8.50;99.90;;;8.01;95.20;101087.63;4104470;29;20086;-70
2020/12/20 00:13:54;;;;;;;13.93;3.80;;;8.40;99.90;;;7.87;95.55;101095.84;4104606;29;20109;-70
2020/12/20 00:15:55;;;;;;;11.18;3.33;;;8.40;99.90;;;7.96;94.35;101095.06;4072906;29;20510;-70
2020/12/20 00:17:56;;;;;;;16.80;4.32;;;8.40;99.90;;;7.97;94.24;101094.13;4088475;29;20039;-70
2020/12/20 00:19:57;;;;;;;13.68;3.70;;;8.30;99.90;;;7.92;94.40;101088.41;4105908;29;20031;-70
2020/12/20 00:22:04;;;;;;;15.77;3.45;;;8.30;99.90;;;7.87;94.29;101096.69;4104045;28;20503;-69
2020/12/20 00:24:07;;;;;;;16.10;3.72;;;8.30;99.90;;;7.84;95.04;101096.94;4105704;28;20027;-70
2020/12/20 00:26:08;;;;;;;14.65;3.17;;;8.20;99.90;;;7.84;94.68;101098.72;4104314;29;20482;-69
2020/12/20 00:28:09;;;;;;;13.85;3.28;;;8.20;99.90;;;7.90;93.35;101091.19;4088449;29;20064;-69
2020/12/20 00:30:10;;;;;;;11.18;3.15;;;8.20;99.90;;;7.66;94.15;101099.34;4072672;29;20491;-69
2020/12/20 00:32:12;;;;;;;10.43;3.47;;;8.20;99.90;;;7.77;93.43;101091.38;4104304;29;20027;-70
2020/12/20 00:34:13;;;;;;;13.27;2.92;;;8.10;99.90;;;7.77;93.90;101090.53;4105295;29;20055;-69
2020/12/20 00:36:14;;;;;;;12.32;4.00;;;8.10;99.90;;;7.72;94.15;101106.69;4104423;29;20183;-70
2020/12/20 00:38:15;;;;;;;14.68;3.95;;;8.10;99.90;;;7.76;94.22;101096.78;4105352;29;20035;-69
2020/12/20 00:40:16;;;;;;;13.40;3.25;;;8.10;99.90;;;7.83;93.59;101100.53;4105279;29;20044;-70
2020/12/20 00:42:17;;;;;;;13.07;3.75;;;8.10;99.90;;;7.72;93.66;101093.56;4102467;28;20069;-70
2020/12/20 00:44:19;;;;;;;11.52;3.40;;;8.10;99.90;;;7.72;93.52;101088.31;4072683;29;20028;-70
2020/12/20 00:46:20;;;;;;;15.23;3.17;;;8.10;99.90;;;7.72;93.58;101084.84;4072520;29;20047;-70
2020/12/20 00:48:21;;;;;;;10.88;3.30;;;8.10;99.90;;;7.70;94.10;101085.00;4079672;29;20028;-69
2020/12/20 00:50:22;;;;;;;10.70;3.10;;;8.10;99.90;;;7.70;93.79;101079.75;4098390;29;20031;-70
2020/12/20 00:52:23;;;;;;;13.35;3.30;;;8.20;99.90;;;7.65;94.01;101075.81;4088067;29;20024;-70
2020/12/20 00:54:25;;;;;;;14.40;4.43;;;8.20;99.90;;;7.75;94.30;101080.19;4105323;29;20035;-69
2020/12/20 00:56:27;;;;;;;8.57;3.22;;;8.20;99.90;;;7.73;94.41;101083.91;4105214;29;20122;-69
2020/12/20 00:58:28;;;;;;;7.63;3.00;;;8.20;99.90;;;7.72;94.74;101087.47;4103954;29;20043;-69
2020/12/20 01:00:29;;;;;;;17.35;3.13;;;8.10;99.90;;;7.77;94.29;101094.00;4105091;29;20027;-69
2020/12/20 01:02:29;;;;;;;11.93;3.08;;;8.20;99.90;;;7.86;94.04;101088.91;4088047;29;20039;-69
2020/12/20 01:04:30;;;;;;;6.47;3.00;;;8.30;99.90;;;7.88;93.93;101092.28;4105019;29;20078;-69
2020/12/20 01:06:31;;;;;;;15.82;3.67;;;8.30;99.90;;;7.82;93.88;101086.56;4103731;29;20039;-69
2020/12/20 01:08:32;;;;;;;18.70;3.90;;;8.40;99.90;;;8.13;95.10;101092.66;4087683;29;20036;-69
2020/12/20 01:10:33;;;;;;;15.13;4.07;;;8.50;99.90;;;8.21;94.62;101089.41;4103889;28;20028;-69
2020/12/20 01:12:34;;;;;;;13.55;3.60;;;8.70;99.90;;;8.20;95.10;101092.97;4087989;29;20027;-69
2020/12/20 01:14:35;;;;;;;14.70;3.20;;;8.80;99.90;;;8.25;94.87;101083.72;4103618;29;20031;-69
2020/12/20 01:16:36;;;;;;;13.23;2.80;;;8.80;99.90;;;8.27;95.48;101083.59;4087817;29;20618;-69
2020/12/20 01:18:36;;;;;;;15.63;2.83;;;8.90;99.90;;;8.28;95.20;101091.38;4103556;29;20039;-69
2020/12/20 01:20:39;;;;;;;10.38;3.05;;;8.80;99.90;;;8.30;95.11;101097.31;4104806;29;20394;-69
2020/12/20 01:22:39;;;;;;;14.07;3.65;;;8.90;99.90;;;8.39;94.92;101093.09;4103383;29;20058;-69
2020/12/20 01:24:40;;;;;;;7.97;2.55;;;8.90;99.90;;;8.37;94.86;101084.50;4087816;29;20027;-69
2020/12/20 01:26:41;;;;;;;12.75;2.60;;;8.90;99.90;;;8.27;94.86;101088.88;4087726;29;20032;-70
2020/12/20 01:28:43;;;;;;;15.90;2.90;;;8.80;99.90;;;8.23;94.77;101083.03;4087510;29;20027;-70
2020/12/20 01:30:44;;;;;;;11.48;3.00;;;8.80;99.90;;;8.25;94.89;101090.78;4087502;29;20032;-70
2020/12/20 01:32:45;;;;;;;10.15;2.85;;;8.70;99.90;;;8.16;95.21;101083.69;4103069;28;20034;-70
2020/12/20 01:34:45;;;;;;;11.50;3.63;;;8.70;99.90;;;8.19;94.81;101086.03;4104181;29;20479;-69
2020/12/20 01:36:46;;;;;;;9.68;2.63;;;8.60;99.90;;;8.11;94.51;101078.84;4103315;29;20114;-69
2020/12/20 01:38:47;;;;;;;9.20;2.80;;;8.60;99.90;;;8.21;93.69;101090.19;4087194;29;20044;-69
2020/12/20 01:40:53;;;;;;;14.68;3.38;;;8.60;99.90;;;8.21;93.18;101092.03;4103106;29;20118;-70
2020/12/20 01:42:55;;;;;;;11.00;3.42;;;8.60;99.90;;;8.15;93.52;101093.34;4080809;29;20035;-70
2020/12/20 01:44:57;;;;;;;13.55;3.25;;;8.60;99.90;;;8.11;94.72;101091.97;4070915;29;20308;-69
2020/12/20 01:46:59;;;;;;;13.73;4.05;;;8.60;99.90;;;8.13;94.97;101089.19;4103564;29;20078;-69
2020/12/20 01:49:02;;;;;;;11.80;4.20;;;8.60;99.90;;;8.11;94.95;101091.13;4077662;29;20027;-69
2020/12/20 01:51:05;;;;;;;17.60;3.47;;;8.60;99.90;;;8.34;93.14;101101.34;4104416;29;20030;-70
2020/12/20 01:53:06;;;;;;;7.72;2.85;;;8.70;99.90;;;8.23;93.40;101100.59;4102968;29;20087;-70
2020/12/20 01:55:08;;;;;;;15.27;3.35;;;8.70;99.90;;;8.13;94.05;101099.72;4104201;29;20134;-70
2020/12/20 01:57:09;;;;;;;13.55;3.40;;;8.60;99.90;;;8.22;94.35;101099.75;4087175;29;20038;-70
2020/12/20 01:59:09;;;;;;;11.68;3.55;;;8.60;99.90;;;8.12;94.27;101092.81;4071413;29;20032;-70
2020/12/20 02:01:10;;;;;;;10.98;3.38;;;8.60;99.90;;;8.09;94.31;101093.91;4087226;29;20079;-70
2020/12/20 02:03:11;;;;;;;11.23;2.80;;;8.50;99.90;;;8.02;93.40;101094.56;4087165;29;20047;-70
2020/12/20 02:05:12;;;;;;;12.27;3.25;;;8.40;99.90;;;8.03;93.48;101090.97;4102979;29;20110;-70
2020/12/20 02:07:14;;;;;;;11.55;3.40;;;8.40;99.90;;;7.94;93.40;101091.75;4086939;29;20040;-70
2020/12/20 02:09:15;;;;;;;17.00;4.05;;;8.30;99.90;;;7.90;93.82;101090.34;4102837;29;20522;-70
2020/12/20 02:11:16;;;;;;;16.10;4.32;;;8.30;99.90;;;8.16;92.91;101102.06;4087012;29;20032;-70
2020/12/20 02:13:17;;;;;;;15.27;3.85;;;8.30;99.90;;;7.94;93.94;101087.34;4102949;29;20022;-70
2020/12/20 02:15:18;;;;;;;13.70;3.28;;;8.30;99.90;;;7.88;94.92;101093.09;4087087;29;20034;-70
2020/12/20 02:17:19;;;;;;;13.27;3.00;;;8.30;99.90;;;7.82;95.09;101089.19;4104035;29;20023;-69
2020/12/20 02:19:21;;;;;;;15.35;3.33;;;8.20;99.90;;;7.73;95.71;101090.00;4103885;29;20114;-69
2020/12/20 02:21:22;;;;;;;11.73;3.00;;;8.20;99.90;;;7.71;95.75;101091.88;4103935;29;21091;-69
2020/12/20 02:23:23;;;;;;;19.90;4.32;;;8.10;99.90;;;7.82;94.93;101098.03;4103731;29;20027;-70
2020/12/20 02:25:24;;;;;;;10.23;3.17;;;8.10;99.90;;;7.73;95.05;101097.88;4086705;29;20487;-70
2020/12/20 02:27:26;;;;;;;13.95;2.72;;;8.10;99.90;;;7.78;94.85;101092.22;4102736;29;20051;-70
2020/12/20 02:29:27;;;;;;;10.40;2.88;;;8.10;99.90;;;7.73;95.29;101107.53;4070785;29;20064;-69
2020/12/20 02:31:29;;;;;;;12.73;2.72;;;8.10;99.90;;;7.80;93.98;101088.50;4066627;29;20123;-70
2020/12/20 02:33:31;;;;;;;14.15;4.05;;;8.10;99.90;;;7.92;92.75;101098.91;4103925;29;20039;-69
2020/12/20 02:35:32;;;;;;;9.48;3.00;;;8.10;99.90;;;7.64;94.28;101090.75;4102689;29;20039;-69
2020/12/20 02:37:33;;;;;;;13.20;3.85;;;8.10;99.90;;;7.67;94.52;101105.41;4103433;29;20395;-70
2020/12/20 02:39:34;;;;;;;12.23;3.13;;;8.00;99.90;;;7.64;95.66;101098.63;4102694;29;20126;-70
2020/12/20 02:41:36;;;;;;;16.88;4.45;;;8.00;99.90;;;7.62;95.87;101100.53;4103616;29;20047;-69
2020/12/20 02:43:37;;;;;;;14.25;3.90;;;8.00;99.90;;;7.69;95.71;101098.22;4074487;29;20062;-70
2020/12/20 02:45:38;;;;;;;18.67;5.30;;;8.00;99.90;;;7.84;96.10;101101.38;4086427;29;20035;-70
2020/12/20 02:47:39;;;;;;;17.80;3.28;;;8.10;99.90;;;7.73;95.89;101095.25;4084677;29;20032;-70
2020/12/20 02:49:39;;;;;;;19.00;4.07;;;8.10;99.90;;;7.77;95.79;101117.63;4086814;29;20090;-70
2020/12/20 02:51:40;;;;;;;20.70;4.45;;;8.10;99.90;;;7.64;96.54;101110.94;4055293;29;20037;-70
2020/12/20 02:53:41;;;;;;;18.38;4.57;;;8.10;99.90;;;7.78;96.27;101114.06;4086360;29;20034;-69
2020/12/20 02:55:42;;;;;;;16.35;4.07;;;8.10;99.90;;;7.80;94.77;101119.16;4071094;29;20028;-70
2020/12/20 02:57:43;;;;;;;21.33;4.80;;;8.10;99.90;;;7.93;93.21;101119.81;4086855;29;20517;-70
2020/12/20 02:59:44;;;;;;;11.73;3.15;;;8.20;99.90;;;7.90;93.97;101119.22;4070952;29;20032;-69
2020/12/20 03:01:45;;;;;;;18.17;4.03;;;8.10;99.90;;;7.81;93.38;101112.97;4086609;29;20415;-69
2020/12/20 03:03:46;;;;;;;14.32;3.92;;;8.10;99.90;;;7.85;93.55;101130.13;4071161;29;20037;-70
2020/12/20 03:05:47;;;;;;;14.73;3.33;;;8.10;99.90;;;7.82;93.63;101119.06;4086881;29;20031;-70
2020/12/20 03:07:48;;;;;;;11.60;3.00;;;8.10;99.90;;;7.57;94.28;101126.34;4070648;29;20511;-70
2020/12/20 03:09:50;;;;;;;7.72;2.88;;;8.00;99.90;;;7.50;95.21;101121.72;4070761;29;20032;-70
2020/12/20 03:11:51;;;;;;;9.52;3.40;;;8.00;99.90;;;7.48;95.02;101126.28;4087911;29;20427;-70
2020/12/20 03:13:52;;;;;;;14.68;3.42;;;7.90;99.90;;;7.38;96.27;101122.75;4086695;29;20027;-70
2020/12/20 03:15:53;;;;;;;11.43;3.67;;;7.80;99.90;;;7.47;95.40;101130.69;4087679;29;20032;-70
2020/12/20 03:17:54;;;;;;;11.48;2.63;;;7.80;99.90;;;7.48;94.32;101132.34;4087543;29;20031;-69
2020/12/20 03:19:54;;;;;;;14.20;3.63;;;7.80;99.90;;;7.43;93.84;101124.03;4086597;29;20028;-70
2020/12/20 03:21:55;;;;;;;9.02;2.38;;;7.80;99.90;;;7.34;93.63;101129.22;4070440;29;20029;-69
2020/12/20 03:24:00;;;;;;;10.93;3.20;;;7.70;99.90;;;7.23;94.26;101130.91;4070594;29;20028;-69
2020/12/20 03:26:01;;;;;;;7.57;2.83;;;7.60;99.90;;;7.28;95.05;101135.78;4087427;29;20102;-70
2020/12/20 03:28:02;;;;;;;8.77;2.90;;;7.70;99.90;;;7.23;94.46;101143.19;4086379;29;20087;-70
2020/12/20 03:30:06;;;;;;;11.18;2.95;;;7.60;99.90;;;7.37;93.72;101156.03;4086358;29;20154;-70
2020/12/20 03:32:07;;;;;;;10.20;3.38;;;7.60;99.90;;;7.34;93.12;101158.91;4086327;29;20479;-70
2020/12/20 03:34:08;;;;;;;13.05;4.05;;;7.60;99.90;;;7.29;94.06;101150.56;4086261;29;20035;-70
2020/12/20 03:36:09;;;;;;;11.32;3.00;;;7.70;99.90;;;7.31;94.17;101150.44;4079420;29;20137;-70
2020/12/20 03:38:10;;;;;;;14.35;3.35;;;7.60;99.90;;;7.33;93.14;101145.91;4102028;29;20028;-70
2020/12/20 03:40:10;;;;;;;13.00;3.40;;;7.70;99.90;;;7.24;93.90;101150.09;4103030;29;20514;-69
2020/12/20 03:42:11;;;;;;;13.35;3.50;;;7.70;99.90;;;7.09;93.87;101133.81;4102335;29;20031;-69
2020/12/20 03:44:12;;;;;;;10.30;3.90;;;7.70;99.90;;;7.16;93.99;101132.38;4090226;28;20062;-69
2020/12/20 03:46:13;;;;;;;12.73;4.03;;;7.60;99.90;;;7.23;94.34;101132.69;4086392;29;20032;-69
2020/12/20 03:48:14;;;;;;;11.02;3.25;;;7.70;99.90;;;7.21;94.90;101150.34;4095304;29;20035;-70
2020/12/20 03:50:15;;;;;;;9.18;3.38;;;7.70;99.90;;;7.36;95.15;101159.59;4086247;29;20124;-70
2020/12/20 03:52:16;;;;;;;15.52;3.95;;;7.80;99.90;;;7.53;95.31;101174.81;4086140;29;20078;-70
2020/12/20 03:54:17;;;;;;;18.73;3.97;;;8.00;99.90;;;7.68;94.86;101238.34;4070583;29;20029;-69
2020/12/20 03:56:18;;;;;;;17.23;4.80;;;8.20;99.90;;;7.96;94.96;101245.63;4087780;29;20110;-70
2020/12/20 03:58:19;;;;;;;15.07;3.33;;;8.40;99.90;;;8.02;94.66;101231.16;4090166;29;20491;-70
2020/12/20 04:00:20;;;;;;;18.23;3.45;;;8.50;99.90;;;8.09;92.61;101220.03;4090347;29;20069;-70
2020/12/20 04:02:21;;;;;;;12.77;2.83;;;8.60;99.90;;;8.06;91.74;101225.53;4090351;29;20031;-70
2020/12/20 04:04:22;;;;;;;11.10;3.50;;;8.70;99.90;;;8.03;91.86;101217.06;4073193;29;20040;-70
2020/12/20 04:06:22;;;;;;;6.78;2.08;;;8.70;99.90;;;7.97;92.51;101214.94;4090086;29;20050;-70
2020/12/20 04:08:23;;;;;;;9.85;2.25;;;8.70;99.90;;;7.80;93.53;101225.06;4072808;29;20032;-70
2020/12/20 04:10:26;;;;;;;11.00;3.13;;;8.70;99.90;;;7.93;92.98;101222.25;4073306;29;20028;-70
2020/12/20 04:12:27;;;;;;;12.50;2.60;;;8.70;99.90;;;8.03;92.99;101219.69;4088854;29;20032;-70
2020/12/20 04:14:29;;;;;;;7.32;2.15;;;8.60;99.90;;;8.04;92.91;101231.84;4088879;29;20024;-70
2020/12/20 04:16:29;;;;;;;6.03;1.98;;;8.70;99.90;;;8.02;92.64;101236.41;4072995;29;20036;-70
2020/12/20 04:18:30;;;;;;;9.18;1.80;;;8.70;99.90;;;7.87;93.80;101241.16;4088917;29;20052;-70
2020/12/20 04:20:31;;;;;;;8.50;1.85;;;8.70;99.90;;;7.97;93.63;101238.59;4088783;29;20039;-70
2020/12/20 04:22:32;;;;;;;6.30;2.00;;;8.60;99.90;;;8.07;93.08;101257.88;4072639;29;20079;-70
2020/12/20 04:24:33;;;;;;;11.88;3.25;;;8.70;99.90;;;8.07;92.87;101247.34;4088599;29;20047;-70
2020/12/20 04:26:34;;;;;;;9.25;2.35;;;8.70;99.90;;;8.16;92.94;101249.22;4088638;29;20498;-70
2020/12/20 04:28:35;;;;;;;13.45;2.58;;;8.70;99.90;;;7.89;93.74;101241.84;4072926;29;20141;-70
2020/12/20 04:30:35;;;;;;;8.13;2.67;;;8.70;99.90;;;7.91;94.51;101239.94;4072795;29;20031;-70
2020/12/20 04:32:36;;;;;;;8.82;3.58;;;8.70;99.90;;;7.89;94.20;101243.63;4089770;29;20040;-70
2020/12/20 04:34:37;;;;;;;12.73;2.95;;;8.60;99.90;;;7.96;94.35;101239.53;4072853;29;20020;-70
2020/12/20 04:36:38;;;;;;;8.68;2.35;;;8.60;99.90;;;8.06;94.35;101238.66;4057031;29;20028;-70
2020/12/20 04:38:39;;;;;;;12.18;1.95;;;8.60;99.90;;;7.90;94.36;101217.25;4088189;29;20027;-70
2020/12/20 04:40:41;;;;;;;7.07;1.80;;;8.60;99.90;;;8.07;93.19;101213.19;4095242;28;20537;-70
2020/12/20 04:42:43;;;;;;;8.77;2.45;;;8.60;99.90;;;7.96;94.55;101221.16;4105402;28;20027;-70
2020/12/20 04:44:45;;;;;;;4.60;1.60;;;8.60;99.90;;;7.91;95.44;101218.09;4104183;29;20027;-70
2020/12/20 04:46:47;;;;;;;5.78;1.52;;;8.60;99.90;;;7.97;95.64;101231.56;4104196;28;20024;-70
2020/12/20 04:48:48;;;;;;;7.07;1.50;;;8.60;99.90;;;7.89;95.63;101217.38;4097416;29;20509;-70
2020/12/20 04:50:50;;;;;;;7.25;2.35;;;8.50;99.90;;;7.83;95.75;101202.94;4104146;28;20050;-70
2020/12/20 04:52:56;;;;;;;7.85;1.95;;;8.50;99.90;;;8.01;94.24;101208.47;4072205;29;20032;-70
2020/12/20 04:54:58;;;;;;;6.63;1.60;;;8.50;99.90;;;7.88;95.47;101197.34;4088085;29;20031;-71
2020/12/20 04:56:59;;;;;;;6.68;1.95;;;8.50;99.90;;;7.95;94.53;101190.59;4088064;29;20059;-71
2020/12/20 04:59:01;;;;;;;4.43;1.40;;;8.50;99.90;;;7.87;94.95;101196.50;4088239;29;20113;-71
2020/12/20 05:01:04;;;;;;;6.38;2.58;;;8.50;99.90;;;7.82;95.37;101196.06;4087752;29;20040;-71
2020/12/20 05:03:05;;;;;;;4.57;1.50;;;8.40;99.90;;;7.80;96.04;101190.91;4088026;29;20488;-70
2020/12/20 05:05:06;;;;;;;6.03;1.50;;;8.40;99.90;;;7.90;95.18;101184.88;4104912;28;20031;-70
2020/12/20 05:07:07;;;;;;;5.38;2.00;;;8.50;99.90;;;7.80;96.11;101188.28;4103638;28;20023;-70
2020/12/20 05:09:09;;;;;;;4.72;1.98;;;8.40;99.90;;;7.89;96.53;101204.22;4105017;28;20083;-70
2020/12/20 05:11:37;;;;;;;6.57;1.63;;;8.40;99.90;;;7.96;95.30;101205.41;4103880;28;20447;-70
2020/12/20 05:13:41;;;;;;;3.70;1.45;;;8.40;99.90;;;7.91;95.60;101216.31;4087816;29;20134;-70
2020/12/20 05:15:42;;;;;;;5.97;1.52;;;8.40;99.90;;;7.88;96.12;101216.56;4104963;28;20589;-70
2020/12/20 05:17:43;;;;;;;8.85;1.58;;;8.30;99.90;;;7.87;96.09;101224.53;4103749;29;20043;-70
2020/12/20 05:19:45;;;;;;;4.07;1.70;;;8.30;99.90;;;7.80;95.87;101230.31;4071954;29;20036;-70
2020/12/20 05:21:46;;;;;;;5.60;2.10;;;8.30;99.90;;;7.68;96.26;101228.69;4104695;28;20487;-70
2020/12/20 05:23:47;;;;;;;5.25;1.90;;;8.20;99.90;;;7.73;96.41;101226.53;4103820;28;20034;-70
2020/12/20 05:25:48;;;;;;;7.75;1.63;;;8.20;99.90;;;7.82;94.01;101224.94;4103557;28;20031;-70
2020/12/20 05:27:49;;;;;;;4.75;2.72;;;8.20;99.90;;;7.66;94.78;101229.78;4087548;29;20111;-70
2020/12/20 05:29:51;;;;;;;7.47;1.83;;;8.20;99.90;;;7.82;93.91;101237.22;4103608;28;20431;-70
2020/12/20 05:31:53;;;;;;;5.38;1.80;;;8.20;99.90;;;7.84;94.52;101243.19;4071743;29;20377;-70
2020/12/20 05:33:58;;;;;;;4.03;1.83;;;8.20;99.90;;;7.85;94.58;101244.84;4087562;29;20027;-70
2020/12/20 05:36:06;;;;;;;9.82;2.38;;;8.20;99.90;;;7.71;95.17;101236.31;4104704;28;20023;-70
2020/12/20 05:38:07;;;;;;;6.43;1.33;;;8.20;99.90;;;7.55;95.68;101237.69;4087256;29;20183;-70
2020/12/20 05:40:15;;;;;;;8.32;1.50;;;8.10;99.90;;;7.56;96.27;101232.31;4104374;28;20035;-70
2020/12/20 05:42:17;;;;;;;3.53;1.20;;;8.10;99.90;;;7.69;95.73;101237.41;4103154;28;20067;-70
2020/12/20 05:44:23;;;;;;;5.28;1.83;;;8.10;99.90;;;7.68;95.74;101239.19;4103386;29;20502;-70
2020/12/20 05:46:27;;;;;;;5.88;1.45;;;8.10;99.90;;;7.75;94.83;101242.16;4087287;29;20475;-70
2020/12/20 05:48:32;;;;;;;4.00;1.63;;;8.10;99.90;;;7.64;94.90;101244.81;4103056;28;20071;-70
2020/12/20 05:50:32;;;;;;;5.00;1.90;;;8.10;99.90;;;7.52;95.41;101249.28;4074378;29;20032;-70
2020/12/20 05:52:33;;;;;;;8.75;2.10;;;7.90;99.90;;;7.58;94.53;101243.53;4087185;29;20072;-70
2020/12/20 05:54:43;;;;;;;11.27;2.25;;;8.00;99.90;;;7.59;94.17;101249.59;4104391;28;20090;-70
2020/12/20 05:56:43;;;;;;;6.22;1.90;;;7.90;99.90;;;7.49;94.35;101246.06;4087099;29;20035;-70
2020/12/20 05:58:44;;;;;;;8.13;1.80;;;7.90;99.90;;;7.50;94.82;101255.59;4104355;28;20031;-70
2020/12/20 06:00:47;;;;;;;5.20;1.58;;;7.80;99.90;;;7.46;94.15;101244.53;4103050;28;20111;-70
2020/12/20 06:02:48;;;;;;;6.75;1.55;;;7.80;99.90;;;7.52;93.90;101257.16;4104238;28;20414;-70
2020/12/20 06:04:49;;;;;;;9.25;1.75;;;7.80;99.90;;;7.35;93.91;101248.97;4102899;28;20063;-70
2020/12/20 06:06:55;;;;;;;5.40;1.50;;;7.80;99.90;;;7.41;94.68;101259.78;4104069;28;20515;-70
2020/12/20 06:09:02;;;;;;;4.97;1.60;;;7.70;99.90;;;7.24;94.58;101255.06;4103012;28;20049;-70
2020/12/20 06:11:03;;;;;;;4.60;1.65;;;7.70;99.90;;;7.10;95.24;101255.34;4103087;28;20034;-70
2020/12/20 06:13:08;;;;;;;5.78;2.38;;;7.60;99.90;;;7.24;94.53;101266.41;4102745;28;20031;-70
2020/12/20 06:15:14;;;;;;;6.22;1.90;;;7.60;99.90;;;7.40;93.18;101271.25;4087294;29;20242;-70
2020/12/20 06:17:18;;;;;;;4.38;1.63;;;7.60;99.90;;;7.22;93.58;101267.47;4104111;28;20391;-70
2020/12/20 06:19:24;;;;;;;3.63;1.55;;;7.60;99.90;;;7.11;94.52;101276.19;4103558;28;20152;-70
2020/12/20 06:21:41;;;;;;;5.22;1.95;;;7.50;99.90;;;7.16;94.14;101279.28;4102979;28;20023;-70
2020/12/20 06:23:44;;;;;;;5.30;1.63;;;7.50;99.90;;;7.17;94.20;101275.69;4086898;29;20434;-70
2020/12/20 06:25:47;;;;;;;7.50;1.90;;;7.50;99.90;;;7.02;94.25;101266.41;4102775;28;20030;-70
2020/12/20 06:27:49;;;;;;;4.57;1.30;;;7.40;99.90;;;7.07;94.27;101279.19;4102517;28;20086;-70
2020/12/20 06:29:59;;;;;;;4.35;1.92;;;7.40;99.90;;;6.98;94.81;101280.75;4104096;28;20111;-69
2020/12/20 06:32:03;;;;;;;4.85;1.65;;;7.30;99.90;;;7.00;94.51;101277.97;4102798;28;20031;-70
2020/12/20 06:34:04;;;;;;;5.68;1.55;;;7.30;99.90;;;6.88;94.38;101273.69;4102658;28;20555;-69
2020/12/20 06:36:11;;;;;;;3.88;1.73;;;7.30;99.90;;;6.85;94.28;101266.06;4102864;28;20034;-70
2020/12/20 06:38:13;;;;;;;5.65;1.90;;;7.20;99.90;;;6.83;94.81;101281.09;4086581;29;20462;-69
2020/12/20 06:40:40;;;;;;;10.20;3.10;;;7.20;99.90;;;6.94;93.98;101286.31;4102533;28;20023;-70
2020/12/20 06:42:44;;;;;;;10.88;4.15;;;7.20;99.90;;;6.83;93.95;101281.94;4082266;29;20126;-70
2020/12/20 06:44:44;;;;;;;13.47;3.50;;;7.20;99.90;;;6.70;94.37;101278.56;4102673;29;20074;-70
2020/12/20 06:46:45;;;;;;;6.70;2.03;;;7.20;99.90;;;6.82;94.20;101293.34;4102581;28;20398;-70
2020/12/20 06:48:46;;;;;;;6.75;2.50;;;7.10;99.90;;;6.77;94.34;101284.19;4095604;29;20031;-70
2020/12/20 06:50:50;;;;;;;4.90;1.80;;;7.10;99.90;;;6.84;94.14;101277.53;4103708;28;20035;-70
2020/12/20 06:52:51;;;;;;;9.23;3.10;;;7.10;99.90;;;6.76;94.15;101269.41;4102255;28;20024;-70
2020/12/20 06:55:05;;;;;;;6.90;2.50;;;7.10;99.90;;;6.78;93.93;101286.66;4103677;28;20031;-70
2020/12/20 06:57:09;;;;;;;5.65;2.08;;;7.10;99.90;;;6.71;94.55;101288.13;4086622;29;20099;-70
2020/12/20 06:59:45;;;;;;;8.68;2.42;;;7.10;99.90;;;6.67;95.17;101284.88;4102622;28;20513;-70
2020/12/20 07:01:46;;;;;;;5.97;1.65;;;7.00;99.90;;;6.75;94.52;101291.34;4086865;29;20059;-70
2020/12/20 07:03:47;;;;;;;6.57;1.58;;;7.10;99.90;;;6.58;94.61;101277.72;4104125;28;20062;-70
2020/12/20 07:05:49;;;;;;;6.22;2.00;;;7.00;99.90;;;6.75;94.64;101288.72;4103876;28;20039;-70
2020/12/20 07:08:22;;;;;;;6.07;2.78;;;7.00;99.90;;;6.68;94.40;101294.44;4103299;28;20110;-70
2020/12/20 07:10:48;;;;;;;8.23;2.20;;;7.00;99.90;;;6.79;93.69;101293.59;4098405;28;20047;-70
2020/12/20 07:12:49;;;;;;;5.72;1.80;;;7.00;99.90;;;6.66;94.51;101285.84;4102603;28;20382;-70
2020/12/20 07:14:50;;;;;;;8.05;1.88;;;7.00;99.90;;;6.96;92.27;101281.81;4103667;28;20032;-70
2020/12/20 07:16:51;;;;;;;6.85;1.60;;;7.10;99.90;;;6.81;93.31;101294.31;4103771;28;20023;-70
2020/12/20 07:19:01;;;;;;;7.88;2.42;;;7.10;99.90;;;6.94;92.69;101296.81;4102561;28;20451;-70
2020/12/20 07:21:02;;;;;;;8.23;2.55;;;7.20;99.90;;;6.75;93.79;101299.22;4103410;28;20525;-70
2020/12/20 07:23:03;;;;;;;4.15;1.70;;;7.10;99.90;;;6.65;94.43;101289.44;4102303;28;20035;-71
2020/12/20 07:25:04;;;;;;;8.20;2.08;;;7.10;99.90;;;6.71;94.02;101295.97;4086461;29;20511;-70
2020/12/20 07:27:06;;;;;;;4.60;1.55;;;7.10;99.90;;;6.67;94.01;101297.16;4102205;28;20035;-70
2020/12/20 07:29:08;;;;;;;8.70;1.90;;;7.00;99.90;;;6.62;93.96;101292.28;4103405;28;20146;-70
2020/12/20 07:31:20;;;;;;;5.82;2.40;;;7.00;99.90;;;6.55;93.63;101293.69;4102271;28;20023;-70
2020/12/20 07:33:21;;;;;;;7.93;2.25;;;6.90;99.90;;;6.58;94.12;101309.19;4105532;28;20566;-70
2020/12/20 07:35:22;;;;;;;7.18;1.90;;;6.90;99.90;;;6.60;93.68;101302.03;4089420;29;20039;-70
2020/12/20 07:37:22;;;;;;;8.48;2.75;;;6.90;99.90;;;6.57;93.35;101302.25;4073274;29;20140;-70
2020/12/20 07:39:24;;;;;;;3.65;1.83;;;6.90;99.90;;;6.55;92.44;101304.16;4106698;28;20027;-69
2020/12/20 07:41:26;;;;;;;6.82;2.25;;;6.90;99.90;;;6.47;92.74;101298.69;4105080;28;20059;-69
2020/12/20 07:43:27;;;;;;;9.13;2.70;;;6.80;99.90;;;6.36;92.61;101303.88;4106367;29;20035;-70
2020/12/20 07:45:28;;;;;;;5.13;2.13;;;6.70;99.90;;;6.28;92.52;101306.25;4105133;28;20031;-70
2020/12/20 07:47:28;;;;;;;6.07;1.98;;;6.70;99.90;;;6.28;93.13;101305.41;4089860;29;20059;-70
2020/12/20 07:49:29;;;;;;;7.30;2.50;;;6.70;99.90;;;6.35;93.70;101317.13;4113851;28;20415;-69
2020/12/20 07:51:30;;;;;;;4.82;1.80;;;6.70;99.90;;;6.34;93.80;101311.03;4089286;29;20039;-70
2020/12/20 07:53:31;;;;;;;6.75;3.15;;;6.80;99.90;;;6.52;93.64;101314.88;4104819;28;20522;-70
2020/12/20 07:55:32;;;;;;;6.00;2.08;;;6.80;99.90;;;6.52;94.15;101312.25;4089251;29;20042;-70
2020/12/20 07:57:34;;;;;;;6.50;2.10;;;6.90;99.90;;;6.60;94.12;101323.00;4106343;28;20031;-70
2020/12/20 07:59:35;;;;;;;5.18;1.85;;;6.90;99.90;;;6.58;94.69;101324.91;4107571;28;20514;-70
2020/12/20 08:01:38;;;;;;;5.60;2.58;;;6.90;99.90;;;6.60;94.45;101317.75;4112121;28;20042;-70
2020/12/20 08:03:39;;;;;;;6.28;2.25;;;6.90;99.90;;;6.71;93.41;101331.84;4089176;29;20056;-70
2020/12/20 08:05:40;;;;;;;8.48;2.58;;;7.00;99.90;;;6.73;93.76;101337.78;4105465;28;20027;-70
2020/12/20 08:07:41;;;;;;;7.82;2.95;;;7.00;99.90;;;6.47;94.03;101338.00;4094230;29;20036;-70
2020/12/20 08:09:42;;;;;;;9.52;2.53;;;7.00;99.90;;;6.50;94.02;101345.63;4088636;29;20032;-70
2020/12/20 08:11:45;;;;;;;3.90;1.83;;;6.90;99.90;;;6.53;94.85;101344.56;4088832;29;20035;-70
2020/12/20 08:13:54;;;;;;;7.07;1.98;;;6.90;99.90;;;6.62;94.75;101339.47;4073176;29;20028;-69
2020/12/20 08:15:55;;;;;;;5.63;2.35;;;6.90;99.90;;;6.73;94.35;101345.66;4092300;29;20081;-70
2020/12/20 08:17:56;;;;;;;7.18;2.20;;;7.00;99.90;;;6.83;92.76;101341.41;4090915;29;20087;-70
2020/12/20 08:20:02;;;;;;;8.00;2.10;;;7.10;99.90;;;6.95;92.78;101353.56;4086528;29;20149;-70
2020/12/20 08:22:11;;;;;;;7.53;2.25;;;7.20;99.90;;;6.75;94.07;101343.78;4094233;29;20046;-70
2020/12/20 08:24:13;;;;;;;10.38;2.30;;;7.20;99.90;;;6.80;94.75;101360.00;4087594;29;20020;-70
2020/12/20 08:26:32;;;;;;;10.60;2.60;;;7.20;99.90;;;6.77;95.74;101341.88;4102867;28;20043;-69
2020/12/20 08:28:33;;;;;;;9.75;3.20;;;7.20;99.90;;;7.03;94.90;101366.91;4104109;28;20031;-69
2020/12/20 08:30:37;;;;;;;8.93;3.00;;;7.30;99.90;;;7.06;94.76;101367.53;4103788;28;20446;-69
2020/12/20 08:32:43;;;;;;;8.18;3.08;;;7.40;99.90;;;7.04;95.49;101373.84;4103564;28;20090;-70
2020/12/20 08:34:44;;;;;;;12.30;2.70;;;7.40;99.90;;;7.08;95.95;101370.84;4103476;29;20430;-70
2020/12/20 08:36:53;;;;;;;8.80;2.35;;;7.40;99.90;;;7.12;95.38;101366.22;4103603;28;20050;-69
2020/12/20 08:38:55;;;;;;;9.13;2.50;;;7.50;99.90;;;7.36;94.32;101398.44;4117425;28;20041;-70